PWSweather.com
Personal Weather Stations
Station Observations
COONRAPIDS
Minneapolis, MN 55433

Minneapolis, MN 55433

Lat: 45.187721, Lon: -93.36828

Elevation: 898

Station Type: Davis Vantage Pro 2

High Low Average
Temperature 42.9°F6.1°C 21.7°F-5.7°C 31.6°F-0.2°C
Dew Point 22.7°F-5.2°C 14.7°F-9.6°C 19.4°F-7.0°C
Winds 3.5 mph 5.6 kmh Calm Calm 1.0 mph WNW1.6 kmh WNW
Wind Gusts 8.1 mph13.0 kmh -- 1.0 mph1.6 kmh
Humidity 78% 42% 61%
Pressure 30.36 in1028.1 mb 30.00 in1015.9 mb -
Precipitation 0.00 in0.0 mm - -
Hour Temp Dew Point Humidity Winds Wind Gusts Pressure Precip Precip Rate Daily Precip Total
12:00 AM 34.4°F1.3°C 21.1°F-6.1°C 58% Calm Calm -- 30.00 in1015.9 mb - 0.00 in0.0 mm 0.00 in0.0 mm
12:10 AM 34.3°F1.3°C 21.0°F-6.1°C 58% Calm Calm -- 30.00 in1015.9 mb - 0.00 in0.0 mm 0.00 in0.0 mm
12:20 AM 34.1°F1.2°C 20.9°F-6.2°C 58% Calm Calm -- 30.00 in1015.9 mb - 0.00 in0.0 mm 0.00 in0.0 mm
12:30 AM 33.7°F0.9°C 20.9°F-6.2°C 59% Calm Calm -- 30.00 in1015.9 mb - 0.00 in0.0 mm 0.00 in0.0 mm
12:40 AM 33.3°F0.7°C 20.5°F-6.4°C 59% Calm Calm -- 30.00 in1015.9 mb - 0.00 in0.0 mm 0.00 in0.0 mm
12:50 AM 33.1°F0.6°C 20.3°F-6.5°C 59% 1.2 mph NW1.9 kmh NW 2.3 mph3.7 kmh 30.01 in1016.3 mb - 0.00 in0.0 mm 0.00 in0.0 mm
01:00 AM 33.1°F0.6°C 20.3°F-6.5°C 59% Calm Calm -- 30.00 in1015.9 mb - 0.00 in0.0 mm 0.00 in0.0 mm
01:10 AM 32.8°F0.4°C 20.4°F-6.4°C 60% Calm Calm 3.5 mph5.6 kmh 30.01 in1016.3 mb - 0.00 in0.0 mm 0.00 in0.0 mm
01:20 AM 32.4°F0.2°C 20.4°F-6.4°C 61% Calm Calm -- 30.01 in1016.3 mb - 0.00 in0.0 mm 0.00 in0.0 mm
01:30 AM 32.0°F0.0°C 20.0°F-6.7°C 61% 1.2 mph NW1.9 kmh NW 2.3 mph3.7 kmh 30.01 in1016.3 mb - 0.00 in0.0 mm 0.00 in0.0 mm
01:40 AM 31.6°F-0.2°C 19.7°F-6.8°C 61% 1.2 mph NW1.9 kmh NW 2.3 mph3.7 kmh 30.01 in1016.3 mb - 0.00 in0.0 mm 0.00 in0.0 mm
01:50 AM 31.3°F-0.4°C 19.8°F-6.8°C 62% Calm Calm -- 30.01 in1016.3 mb - 0.00 in0.0 mm 0.00 in0.0 mm
02:00 AM 30.9°F-0.6°C 19.4°F-7.0°C 62% Calm Calm 2.3 mph3.7 kmh 30.01 in1016.3 mb - 0.00 in0.0 mm 0.00 in0.0 mm
02:10 AM 30.5°F-0.8°C 19.4°F-7.0°C 63% Calm Calm 3.5 mph5.6 kmh 30.01 in1016.3 mb - 0.00 in0.0 mm 0.00 in0.0 mm
02:20 AM 30.2°F-1.0°C 19.4°F-7.0°C 64% Calm Calm -- 30.01 in1016.3 mb - 0.00 in0.0 mm 0.00 in0.0 mm
02:30 AM 29.8°F-1.2°C 19.4°F-7.0°C 65% Calm Calm -- 30.01 in1016.3 mb - 0.00 in0.0 mm 0.00 in0.0 mm
02:40 AM 29.5°F-1.4°C 19.2°F-7.1°C 65% Calm Calm -- 30.01 in1016.3 mb - 0.00 in0.0 mm 0.00 in0.0 mm
02:50 AM 29.2°F-1.6°C 19.3°F-7.1°C 66% 1.2 mph NW1.9 kmh NW 3.5 mph5.6 kmh 30.01 in1016.3 mb - 0.00 in0.0 mm 0.00 in0.0 mm
03:00 AM 28.9°F-1.7°C 18.9°F-7.3°C 66% Calm Calm -- 30.01 in1016.3 mb - 0.00 in0.0 mm 0.00 in0.0 mm
03:10 AM 28.3°F-2.1°C 18.7°F-7.4°C 67% Calm Calm -- 30.01 in1016.3 mb - 0.00 in0.0 mm 0.00 in0.0 mm
03:20 AM 28.0°F-2.2°C 18.5°F-7.5°C 67% Calm Calm -- 30.01 in1016.3 mb - 0.00 in0.0 mm 0.00 in0.0 mm
03:30 AM 27.7°F-2.4°C 18.2°F-7.7°C 67% Calm Calm -- 30.02 in1016.6 mb - 0.00 in0.0 mm 0.00 in0.0 mm
03:40 AM 27.3°F-2.6°C 17.8°F-7.9°C 67% Calm Calm -- 30.02 in1016.6 mb - 0.00 in0.0 mm 0.00 in0.0 mm
03:50 AM 27.0°F-2.8°C 17.8°F-7.9°C 68% Calm Calm 3.5 mph5.6 kmh 30.02 in1016.6 mb - 0.00 in0.0 mm 0.00 in0.0 mm
04:00 AM 26.9°F-2.8°C 17.4°F-8.1°C 67% Calm Calm -- 30.02 in1016.6 mb - 0.00 in0.0 mm 0.00 in0.0 mm
04:10 AM 26.6°F-3.0°C 17.2°F-8.2°C 67% Calm Calm -- 30.02 in1016.6 mb - 0.00 in0.0 mm 0.00 in0.0 mm
04:20 AM 26.2°F-3.2°C 17.1°F-8.3°C 68% Calm Calm -- 30.03 in1016.9 mb - 0.00 in0.0 mm 0.00 in0.0 mm
04:30 AM 26.1°F-3.3°C 17.0°F-8.3°C 68% Calm Calm -- 30.03 in1016.9 mb - 0.00 in0.0 mm 0.00 in0.0 mm
04:40 AM 25.6°F-3.6°C 16.5°F-8.6°C 68% Calm Calm -- 30.03 in1016.9 mb - 0.00 in0.0 mm 0.00 in0.0 mm
04:50 AM 25.2°F-3.8°C 16.5°F-8.6°C 69% Calm Calm -- 30.03 in1016.9 mb - 0.00 in0.0 mm 0.00 in0.0 mm
05:00 AM 24.7°F-4.1°C 16.3°F-8.7°C 70% Calm Calm -- 30.04 in1017.3 mb - 0.00 in0.0 mm 0.00 in0.0 mm
05:10 AM 24.3°F-4.3°C 16.3°F-8.7°C 71% Calm Calm -- 30.04 in1017.3 mb - 0.00 in0.0 mm 0.00 in0.0 mm
05:20 AM 23.9°F-4.5°C 15.9°F-8.9°C 71% Calm Calm -- 30.04 in1017.3 mb - 0.00 in0.0 mm 0.00 in0.0 mm
05:30 AM 23.4°F-4.8°C 15.7°F-9.1°C 72% Calm Calm -- 30.04 in1017.3 mb - 0.00 in0.0 mm 0.00 in0.0 mm
05:40 AM 22.9°F-5.1°C 15.5°F-9.2°C 73% Calm Calm -- 30.04 in1017.3 mb - 0.00 in0.0 mm 0.00 in0.0 mm
05:50 AM 22.5°F-5.3°C 15.5°F-9.2°C 74% Calm Calm -- 30.05 in1017.6 mb - 0.00 in0.0 mm 0.00 in0.0 mm
06:00 AM 22.6°F-5.2°C 15.6°F-9.1°C 74% Calm Calm -- 30.05 in1017.6 mb - 0.00 in0.0 mm 0.00 in0.0 mm
06:10 AM 22.7°F-5.2°C 15.7°F-9.1°C 74% Calm Calm 3.5 mph5.6 kmh 30.06 in1017.9 mb - 0.00 in0.0 mm 0.00 in0.0 mm
06:20 AM 22.7°F-5.2°C 15.3°F-9.3°C 73% 1.2 mph WNW1.9 kmh WNW -- 30.06 in1017.9 mb - 0.00 in0.0 mm 0.00 in0.0 mm
06:30 AM 22.5°F-5.3°C 15.1°F-9.4°C 73% 1.2 mph WNW1.9 kmh WNW 3.5 mph5.6 kmh 30.07 in1018.3 mb - 0.00 in0.0 mm 0.00 in0.0 mm
06:40 AM 22.4°F-5.3°C 15.1°F-9.4°C 73% Calm Calm 2.3 mph3.7 kmh 30.07 in1018.3 mb - 0.00 in0.0 mm 0.00 in0.0 mm
06:50 AM 22.4°F-5.3°C 15.1°F-9.4°C 73% Calm Calm -- 30.07 in1018.3 mb - 0.00 in0.0 mm 0.00 in0.0 mm
07:00 AM 22.1°F-5.5°C 14.7°F-9.6°C 73% Calm Calm -- 30.07 in1018.3 mb - 0.00 in0.0 mm 0.00 in0.0 mm
07:10 AM 21.8°F-5.7°C 14.8°F-9.6°C 74% Calm Calm -- 30.08 in1018.6 mb - 0.00 in0.0 mm 0.00 in0.0 mm
07:20 AM 21.7°F-5.7°C 14.7°F-9.6°C 74% Calm Calm -- 30.08 in1018.6 mb - 0.00 in0.0 mm 0.00 in0.0 mm
07:30 AM 21.8°F-5.7°C 14.8°F-9.6°C 74% Calm Calm 2.3 mph3.7 kmh 30.09 in1019.0 mb - 0.00 in0.0 mm 0.00 in0.0 mm
07:40 AM 22.1°F-5.5°C 15.1°F-9.4°C 74% Calm Calm -- 30.09 in1019.0 mb - 0.00 in0.0 mm 0.00 in0.0 mm
07:50 AM 22.6°F-5.2°C 15.5°F-9.2°C 74% 1.2 mph WNW1.9 kmh WNW 2.3 mph3.7 kmh 30.09 in1019.0 mb - 0.00 in0.0 mm 0.00 in0.0 mm
08:00 AM 23.3°F-4.8°C 15.9°F-8.9°C 73% Calm Calm -- 30.09 in1019.0 mb - 0.00 in0.0 mm 0.00 in0.0 mm
08:10 AM 23.9°F-4.5°C 15.9°F-8.9°C 71% Calm Calm -- 30.10 in1019.3 mb - 0.00 in0.0 mm 0.00 in0.0 mm
08:20 AM 24.2°F-4.3°C 16.1°F-8.8°C 71% 2.3 mph WNW3.7 kmh WNW 2.3 mph3.7 kmh 30.10 in1019.3 mb - 0.00 in0.0 mm 0.00 in0.0 mm
08:30 AM 24.4°F-4.2°C 16.0°F-8.9°C 70% 2.3 mph NW3.7 kmh NW 4.6 mph7.4 kmh 30.10 in1019.3 mb - 0.00 in0.0 mm 0.00 in0.0 mm
08:40 AM 24.6°F-4.1°C 15.9°F-8.9°C 69% 1.2 mph WNW1.9 kmh WNW 2.3 mph3.7 kmh 30.10 in1019.3 mb - 0.00 in0.0 mm 0.00 in0.0 mm
08:50 AM 25.1°F-3.8°C 16.0°F-8.9°C 68% Calm Calm 3.5 mph5.6 kmh 30.11 in1019.6 mb - 0.00 in0.0 mm 0.00 in0.0 mm
09:00 AM 25.7°F-3.5°C 16.3°F-8.7°C 67% Calm Calm -- 30.11 in1019.6 mb - 0.00 in0.0 mm 0.00 in0.0 mm
09:10 AM 26.5°F-3.1°C 16.7°F-8.5°C 66% Calm Calm -- 30.11 in1019.6 mb - 0.00 in0.0 mm 0.00 in0.0 mm
09:20 AM 27.4°F-2.6°C 16.8°F-8.4°C 64% Calm Calm -- 30.11 in1019.6 mb - 0.00 in0.0 mm 0.00 in0.0 mm
09:30 AM 28.1°F-2.2°C 17.1°F-8.3°C 63% Calm Calm -- 30.11 in1019.6 mb - 0.00 in0.0 mm 0.00 in0.0 mm
09:40 AM 28.8°F-1.8°C 17.4°F-8.1°C 62% 2.3 mph NW3.7 kmh NW 3.5 mph5.6 kmh 30.12 in1020.0 mb - 0.00 in0.0 mm 0.00 in0.0 mm
09:50 AM 29.5°F-1.4°C 17.3°F-8.2°C 60% Calm Calm -- 30.12 in1020.0 mb - 0.00 in0.0 mm 0.00 in0.0 mm
10:00 AM 30.2°F-1.0°C 17.6°F-8.0°C 59% Calm Calm -- 30.12 in1020.0 mb - 0.00 in0.0 mm 0.00 in0.0 mm
10:10 AM 30.8°F-0.7°C 17.7°F-7.9°C 58% Calm Calm -- 30.13 in1020.3 mb - 0.00 in0.0 mm 0.00 in0.0 mm
10:20 AM 31.4°F-0.3°C 16.7°F-8.5°C 54% 2.3 mph WNW3.7 kmh WNW 4.6 mph7.4 kmh 30.13 in1020.3 mb - 0.00 in0.0 mm 0.00 in0.0 mm
10:30 AM 32.4°F0.2°C 17.6°F-8.0°C 54% 1.2 mph NW1.9 kmh NW 3.5 mph5.6 kmh 30.13 in1020.3 mb - 0.00 in0.0 mm 0.00 in0.0 mm
10:40 AM 33.1°F0.6°C 17.8°F-7.9°C 53% 1.2 mph W1.9 kmh W -- 30.14 in1020.7 mb - 0.00 in0.0 mm 0.00 in0.0 mm
10:50 AM 33.8°F1.0°C 18.5°F-7.5°C 53% 3.5 mph NW5.6 kmh NW 3.5 mph5.6 kmh 30.14 in1020.7 mb - 0.00 in0.0 mm 0.00 in0.0 mm
11:00 AM 34.7°F1.5°C 18.9°F-7.3°C 52% 1.2 mph WNW1.9 kmh WNW 3.5 mph5.6 kmh 30.14 in1020.7 mb - 0.00 in0.0 mm 0.00 in0.0 mm
11:10 AM 34.7°F1.5°C 18.8°F-7.3°C 52% 2.3 mph W3.7 kmh W 5.8 mph9.3 kmh 30.14 in1020.7 mb - 0.00 in0.0 mm 0.00 in0.0 mm
11:20 AM 35.0°F1.7°C 19.6°F-6.9°C 53% Calm Calm -- 30.14 in1020.7 mb - 0.00 in0.0 mm 0.00 in0.0 mm
11:30 AM 35.6°F2.0°C 20.1°F-6.6°C 53% 1.2 mph WNW1.9 kmh WNW 3.5 mph5.6 kmh 30.14 in1020.7 mb - 0.00 in0.0 mm 0.00 in0.0 mm
11:40 AM 36.0°F2.2°C 20.1°F-6.6°C 52% 2.3 mph NNW3.7 kmh NNW 8.1 mph13.0 kmh 30.15 in1021.0 mb - 0.00 in0.0 mm 0.00 in0.0 mm
11:50 AM 36.2°F2.3°C 20.7°F-6.3°C 53% 2.3 mph W3.7 kmh W 4.6 mph7.4 kmh 30.15 in1021.0 mb - 0.00 in0.0 mm 0.00 in0.0 mm
12:00 PM 37.1°F2.8°C 21.1°F-6.1°C 52% Calm Calm 4.6 mph7.4 kmh 30.15 in1021.0 mb - 0.00 in0.0 mm 0.00 in0.0 mm
12:10 PM 37.1°F2.8°C 20.2°F-6.6°C 50% Calm Calm -- 30.15 in1021.0 mb - 0.00 in0.0 mm 0.00 in0.0 mm
12:20 PM 36.9°F2.7°C 20.5°F-6.4°C 51% 2.3 mph NW3.7 kmh NW 3.5 mph5.6 kmh 30.15 in1021.0 mb - 0.00 in0.0 mm 0.00 in0.0 mm
12:30 PM 37.2°F2.9°C 21.2°F-6.0°C 52% 1.2 mph SW1.9 kmh SW 2.3 mph3.7 kmh 30.15 in1021.0 mb - 0.00 in0.0 mm 0.00 in0.0 mm
12:40 PM 37.7°F3.2°C 20.7°F-6.3°C 50% 3.5 mph W5.6 kmh W 4.6 mph7.4 kmh 30.15 in1021.0 mb - 0.00 in0.0 mm 0.00 in0.0 mm
12:50 PM 38.0°F3.3°C 21.0°F-6.1°C 50% 1.2 mph WNW1.9 kmh WNW 2.3 mph3.7 kmh 30.16 in1021.3 mb - 0.00 in0.0 mm 0.00 in0.0 mm
01:00 PM 38.0°F3.3°C 21.0°F-6.1°C 50% 2.3 mph SW3.7 kmh SW 4.6 mph7.4 kmh 30.16 in1021.3 mb - 0.00 in0.0 mm 0.00 in0.0 mm
01:10 PM 38.7°F3.7°C 21.6°F-5.8°C 50% 1.2 mph NW1.9 kmh NW 3.5 mph5.6 kmh 30.16 in1021.3 mb - 0.00 in0.0 mm 0.00 in0.0 mm
01:20 PM 38.9°F3.8°C 21.3°F-5.9°C 49% 2.3 mph NW3.7 kmh NW 3.5 mph5.6 kmh 30.16 in1021.3 mb - 0.00 in0.0 mm 0.00 in0.0 mm
01:30 PM 39.3°F4.1°C 21.7°F-5.7°C 49% Calm Calm 2.3 mph3.7 kmh 30.17 in1021.7 mb - 0.00 in0.0 mm 0.00 in0.0 mm
01:40 PM 38.8°F3.8°C 21.7°F-5.7°C 50% 3.5 mph W5.6 kmh W 5.8 mph9.3 kmh 30.17 in1021.7 mb - 0.00 in0.0 mm 0.00 in0.0 mm
01:50 PM 38.9°F3.8°C 21.8°F-5.7°C 50% 1.2 mph W1.9 kmh W 4.6 mph7.4 kmh 30.17 in1021.7 mb - 0.00 in0.0 mm 0.00 in0.0 mm
02:00 PM 39.0°F3.9°C 22.4°F-5.3°C 51% 2.3 mph W3.7 kmh W 2.3 mph3.7 kmh 30.17 in1021.7 mb - 0.00 in0.0 mm 0.00 in0.0 mm
02:10 PM 39.8°F4.3°C 22.6°F-5.2°C 50% Calm Calm 3.5 mph5.6 kmh 30.17 in1021.7 mb - 0.00 in0.0 mm 0.00 in0.0 mm
02:20 PM 40.4°F4.7°C 22.7°F-5.2°C 49% 1.2 mph WNW1.9 kmh WNW 4.6 mph7.4 kmh 30.18 in1022.0 mb - 0.00 in0.0 mm 0.00 in0.0 mm
02:30 PM 40.8°F4.9°C 22.6°F-5.2°C 48% 2.3 mph WNW3.7 kmh WNW 5.8 mph9.3 kmh 30.18 in1022.0 mb - 0.00 in0.0 mm 0.00 in0.0 mm
02:40 PM 40.6°F4.8°C 22.4°F-5.3°C 48% 2.3 mph WNW3.7 kmh WNW 5.8 mph9.3 kmh 30.18 in1022.0 mb - 0.00 in0.0 mm 0.00 in0.0 mm
02:50 PM 40.8°F4.9°C 22.6°F-5.2°C 48% 1.2 mph NW1.9 kmh NW 3.5 mph5.6 kmh 30.18 in1022.0 mb - 0.00 in0.0 mm 0.00 in0.0 mm
03:00 PM 41.0°F5.0°C 21.8°F-5.7°C 46% 2.3 mph W3.7 kmh W 3.5 mph5.6 kmh 30.18 in1022.0 mb - 0.00 in0.0 mm 0.00 in0.0 mm
03:10 PM 41.8°F5.4°C 22.0°F-5.6°C 45% 1.2 mph W1.9 kmh W -- 30.18 in1022.0 mb - 0.00 in0.0 mm 0.00 in0.0 mm
03:20 PM 42.3°F5.7°C 21.9°F-5.6°C 44% 2.3 mph WNW3.7 kmh WNW 4.6 mph7.4 kmh 30.19 in1022.4 mb - 0.00 in0.0 mm 0.00 in0.0 mm
03:30 PM 42.4°F5.8°C 21.5°F-5.8°C 43% Calm Calm 2.3 mph3.7 kmh 30.19 in1022.4 mb - 0.00 in0.0 mm 0.00 in0.0 mm
03:40 PM 42.7°F5.9°C 21.7°F-5.7°C 43% 2.3 mph W3.7 kmh W 3.5 mph5.6 kmh 30.20 in1022.7 mb - 0.00 in0.0 mm 0.00 in0.0 mm
03:50 PM 42.9°F6.1°C 21.3°F-5.9°C 42% 1.2 mph W1.9 kmh W 3.5 mph5.6 kmh 30.20 in1022.7 mb - 0.00 in0.0 mm 0.00 in0.0 mm
04:00 PM 42.4°F5.8°C 21.5°F-5.8°C 43% 1.2 mph WNW1.9 kmh WNW 3.5 mph5.6 kmh 30.20 in1022.7 mb - 0.00 in0.0 mm 0.00 in0.0 mm
04:10 PM 42.2°F5.7°C 21.8°F-5.7°C 44% Calm Calm 3.5 mph5.6 kmh 30.20 in1022.7 mb - 0.00 in0.0 mm 0.00 in0.0 mm
04:20 PM 41.6°F5.3°C 21.8°F-5.7°C 45% Calm Calm -- 30.20 in1022.7 mb - 0.00 in0.0 mm 0.00 in0.0 mm
04:30 PM 41.6°F5.3°C 21.3°F-5.9°C 44% 1.2 mph WNW1.9 kmh WNW 2.3 mph3.7 kmh 30.21 in1023.0 mb - 0.00 in0.0 mm 0.00 in0.0 mm
04:40 PM 41.6°F5.3°C 21.3°F-5.9°C 44% 1.2 mph W1.9 kmh W 3.5 mph5.6 kmh 30.22 in1023.4 mb - 0.00 in0.0 mm 0.00 in0.0 mm
04:50 PM 41.6°F5.3°C 21.3°F-5.9°C 44% Calm Calm 2.3 mph3.7 kmh 30.22 in1023.4 mb - 0.00 in0.0 mm 0.00 in0.0 mm
05:00 PM 41.4°F5.2°C 21.6°F-5.8°C 45% Calm Calm 2.3 mph3.7 kmh 30.22 in1023.4 mb - 0.00 in0.0 mm 0.00 in0.0 mm
05:10 PM 40.1°F4.5°C 21.5°F-5.8°C 47% Calm Calm -- 30.22 in1023.4 mb - 0.00 in0.0 mm 0.00 in0.0 mm
05:20 PM 39.6°F4.2°C 21.0°F-6.1°C 47% 1.2 mph NW1.9 kmh NW -- 30.23 in1023.7 mb - 0.00 in0.0 mm 0.00 in0.0 mm
05:30 PM 39.1°F3.9°C 21.0°F-6.1°C 48% Calm Calm -- 30.23 in1023.7 mb - 0.00 in0.0 mm 0.00 in0.0 mm
05:40 PM 38.7°F3.7°C 21.6°F-5.8°C 50% Calm Calm -- 30.23 in1023.7 mb - 0.00 in0.0 mm 0.00 in0.0 mm
05:50 PM 38.2°F3.4°C 21.6°F-5.8°C 51% Calm Calm 3.5 mph5.6 kmh 30.23 in1023.7 mb - 0.00 in0.0 mm 0.00 in0.0 mm
06:00 PM 37.8°F3.2°C 22.2°F-5.4°C 53% Calm Calm -- 30.24 in1024.0 mb - 0.00 in0.0 mm 0.00 in0.0 mm
06:10 PM 37.1°F2.8°C 22.4°F-5.3°C 55% Calm Calm -- 30.24 in1024.0 mb - 0.00 in0.0 mm 0.00 in0.0 mm
06:20 PM 36.2°F2.3°C 22.4°F-5.3°C 57% Calm Calm -- 30.24 in1024.0 mb - 0.00 in0.0 mm 0.00 in0.0 mm
06:30 PM 35.7°F2.1°C 22.3°F-5.4°C 58% Calm Calm -- 30.25 in1024.4 mb - 0.00 in0.0 mm 0.00 in0.0 mm
06:40 PM 35.2°F1.8°C 22.3°F-5.4°C 59% Calm Calm -- 30.25 in1024.4 mb - 0.00 in0.0 mm 0.00 in0.0 mm
06:50 PM 34.6°F1.4°C 22.5°F-5.3°C 61% Calm Calm -- 30.26 in1024.7 mb - 0.00 in0.0 mm 0.00 in0.0 mm
07:00 PM 34.1°F1.2°C 22.4°F-5.3°C 62% Calm Calm -- 30.26 in1024.7 mb - 0.00 in0.0 mm 0.00 in0.0 mm
07:10 PM 33.5°F0.8°C 22.2°F-5.4°C 63% Calm Calm -- 30.26 in1024.7 mb - 0.00 in0.0 mm 0.00 in0.0 mm
07:20 PM 33.0°F0.6°C 22.2°F-5.4°C 64% Calm Calm -- 30.27 in1025.1 mb - 0.00 in0.0 mm 0.00 in0.0 mm
07:30 PM 32.5°F0.3°C 22.0°F-5.6°C 65% Calm Calm -- 30.27 in1025.1 mb - 0.00 in0.0 mm 0.00 in0.0 mm
07:40 PM 32.3°F0.2°C 22.2°F-5.4°C 66% Calm Calm -- 30.27 in1025.1 mb - 0.00 in0.0 mm 0.00 in0.0 mm
07:50 PM 31.7°F-0.2°C 22.0°F-5.6°C 67% Calm Calm -- 30.27 in1025.1 mb - 0.00 in0.0 mm 0.00 in0.0 mm
08:00 PM 31.2°F-0.4°C 21.5°F-5.8°C 67% Calm Calm -- 30.28 in1025.4 mb - 0.00 in0.0 mm 0.00 in0.0 mm
08:10 PM 30.3°F-0.9°C 21.0°F-6.1°C 68% Calm Calm -- 30.28 in1025.4 mb - 0.00 in0.0 mm 0.00 in0.0 mm
08:20 PM 29.8°F-1.2°C 21.2°F-6.0°C 70% Calm Calm -- 30.29 in1025.7 mb - 0.00 in0.0 mm 0.00 in0.0 mm
08:30 PM 30.5°F-0.8°C 21.9°F-5.6°C 70% Calm Calm -- 30.29 in1025.7 mb - 0.00 in0.0 mm 0.00 in0.0 mm
08:40 PM 30.6°F-0.8°C 21.6°F-5.8°C 69% Calm Calm -- 30.29 in1025.7 mb - 0.00 in0.0 mm 0.00 in0.0 mm
08:50 PM 30.4°F-0.9°C 21.1°F-6.1°C 68% Calm Calm -- 30.29 in1025.7 mb - 0.00 in0.0 mm 0.00 in0.0 mm
09:00 PM 30.0°F-1.1°C 21.1°F-6.1°C 69% Calm Calm -- 30.30 in1026.1 mb - 0.00 in0.0 mm 0.00 in0.0 mm
09:10 PM 29.8°F-1.2°C 21.2°F-6.0°C 70% Calm Calm -- 30.30 in1026.1 mb - 0.00 in0.0 mm 0.00 in0.0 mm
09:20 PM 29.6°F-1.3°C 21.0°F-6.1°C 70% Calm Calm -- 30.31 in1026.4 mb - 0.00 in0.0 mm 0.00 in0.0 mm
09:30 PM 29.3°F-1.5°C 20.7°F-6.3°C 70% Calm Calm 2.3 mph3.7 kmh 30.31 in1026.4 mb - 0.00 in0.0 mm 0.00 in0.0 mm
09:40 PM 29.0°F-1.7°C 20.8°F-6.2°C 71% Calm Calm -- 30.31 in1026.4 mb - 0.00 in0.0 mm 0.00 in0.0 mm
09:50 PM 28.5°F-1.9°C 20.3°F-6.5°C 71% Calm Calm -- 30.32 in1026.8 mb - 0.00 in0.0 mm 0.00 in0.0 mm
10:00 PM 28.0°F-2.2°C 20.1°F-6.6°C 72% Calm Calm -- 30.32 in1026.8 mb - 0.00 in0.0 mm 0.00 in0.0 mm
10:10 PM 27.3°F-2.6°C 19.5°F-6.9°C 72% Calm Calm -- 30.33 in1027.1 mb - 0.00 in0.0 mm 0.00 in0.0 mm
10:20 PM 27.1°F-2.7°C 19.9°F-6.7°C 74% Calm Calm -- 30.33 in1027.1 mb - 0.00 in0.0 mm 0.00 in0.0 mm
10:30 PM 27.3°F-2.6°C 20.1°F-6.6°C 74% Calm Calm -- 30.34 in1027.4 mb - 0.00 in0.0 mm 0.00 in0.0 mm
10:40 PM 27.1°F-2.7°C 19.9°F-6.7°C 74% Calm Calm -- 30.34 in1027.4 mb - 0.00 in0.0 mm 0.00 in0.0 mm
10:50 PM 26.6°F-3.0°C 19.4°F-7.0°C 74% Calm Calm -- 30.34 in1027.4 mb - 0.00 in0.0 mm 0.00 in0.0 mm
11:00 PM 26.0°F-3.3°C 19.2°F-7.1°C 75% Calm Calm -- 30.35 in1027.8 mb - 0.00 in0.0 mm 0.00 in0.0 mm
11:10 PM 25.4°F-3.7°C 18.9°F-7.3°C 76% Calm Calm -- 30.35 in1027.8 mb - 0.00 in0.0 mm 0.00 in0.0 mm
11:20 PM 24.5°F-4.2°C 18.0°F-7.8°C 76% Calm Calm -- 30.36 in1028.1 mb - 0.00 in0.0 mm 0.00 in0.0 mm
11:30 PM 24.6°F-4.1°C 18.7°F-7.4°C 78% Calm Calm -- 30.35 in1027.8 mb - 0.00 in0.0 mm 0.00 in0.0 mm
11:40 PM 24.7°F-4.1°C 18.8°F-7.3°C 78% Calm Calm -- 30.36 in1028.1 mb - 0.00 in0.0 mm 0.00 in0.0 mm
11:50 PM 24.7°F-4.1°C 18.8°F-7.3°C 78% Calm Calm -- 30.36 in1028.1 mb - 0.00 in0.0 mm 0.00 in0.0 mm